sensor_id;sensor_type;location;lat;lon;timestamp;pressure;altitude;pressure_sealevel;temperature;humidity
76653;BME280;65563;45.970;12.680;2022-12-29T00:00:51;102092.53;;;6.68;75.96
76653;BME280;65563;45.970;12.680;2022-12-29T00:01:51;102103.69;;;6.72;75.92
76653;BME280;65563;45.970;12.680;2022-12-29T00:02:51;102100.28;;;6.60;76.25
76653;BME280;65563;45.970;12.680;2022-12-29T00:03:51;102103.81;;;6.50;76.69
76653;BME280;65563;45.970;12.680;2022-12-29T00:04:51;102099.50;;;6.49;76.92
76653;BME280;65563;45.970;12.680;2022-12-29T00:05:55;102093.53;;;6.67;76.12
76653;BME280;65563;45.970;12.680;2022-12-29T00:06:55;102098.25;;;6.53;76.50
76653;BME280;65563;45.970;12.680;2022-12-29T00:07:56;102089.75;;;6.49;76.42
76653;BME280;65563;45.970;12.680;2022-12-29T00:08:56;102095.00;;;6.60;76.16
76653;BME280;65563;45.970;12.680;2022-12-29T00:09:56;102100.47;;;6.48;76.54
76653;BME280;65563;45.970;12.680;2022-12-29T00:10:56;102094.53;;;6.34;77.15
76653;BME280;65563;45.970;12.680;2022-12-29T00:11:56;102094.34;;;6.26;77.41
76653;BME280;65563;45.970;12.680;2022-12-29T00:12:57;102092.09;;;6.21;77.77
76653;BME280;65563;45.970;12.680;2022-12-29T00:13:57;102092.44;;;6.17;77.97
76653;BME280;65563;45.970;12.680;2022-12-29T00:14:57;102086.94;;;6.20;77.86
76653;BME280;65563;45.970;12.680;2022-12-29T00:15:57;102088.53;;;6.11;78.18
76653;BME280;65563;45.970;12.680;2022-12-29T00:16:57;102091.75;;;6.15;78.39
76653;BME280;65563;45.970;12.680;2022-12-29T00:17:57;102090.63;;;6.29;77.75
76653;BME280;65563;45.970;12.680;2022-12-29T00:18:58;102092.19;;;6.20;77.89
76653;BME280;65563;45.970;12.680;2022-12-29T00:19:58;102087.25;;;6.27;77.90
76653;BME280;65563;45.970;12.680;2022-12-29T00:20:58;102086.94;;;6.20;77.97
76653;BME280;65563;45.970;12.680;2022-12-29T00:21:58;102086.53;;;6.25;78.04
76653;BME280;65563;45.970;12.680;2022-12-29T00:22:59;102084.03;;;6.23;77.69
76653;BME280;65563;45.970;12.680;2022-12-29T00:23:59;102081.84;;;6.28;77.76
76653;BME280;65563;45.970;12.680;2022-12-29T00:24:59;102074.00;;;6.38;77.28
76653;BME280;65563;45.970;12.680;2022-12-29T00:26:02;102072.41;;;6.47;76.76
76653;BME280;65563;45.970;12.680;2022-12-29T00:28:02;102065.50;;;6.55;76.35
76653;BME280;65563;45.970;12.680;2022-12-29T00:29:03;102069.94;;;6.55;76.29
76653;BME280;65563;45.970;12.680;2022-12-29T00:30:07;102067.56;;;6.52;76.42
76653;BME280;65563;45.970;12.680;2022-12-29T00:31:10;102070.72;;;6.45;76.79
76653;BME280;65563;45.970;12.680;2022-12-29T00:32:11;102063.38;;;6.49;77.08
76653;BME280;65563;45.970;12.680;2022-12-29T00:33:15;102067.75;;;6.60;76.80
76653;BME280;65563;45.970;12.680;2022-12-29T00:34:15;102062.19;;;6.53;76.82
76653;BME280;65563;45.970;12.680;2022-12-29T00:36:02;102061.13;;;6.44;77.28
76653;BME280;65563;45.970;12.680;2022-12-29T00:36:39;102063.09;;;6.42;77.28
76653;BME280;65563;45.970;12.680;2022-12-29T00:37:41;102063.84;;;6.33;77.37
76653;BME280;65563;45.970;12.680;2022-12-29T00:38:44;102060.94;;;6.36;77.63
76653;BME280;65563;45.970;12.680;2022-12-29T00:39:45;102064.84;;;6.21;78.03
76653;BME280;65563;45.970;12.680;2022-12-29T00:40:45;102064.81;;;6.32;77.75
76653;BME280;65563;45.970;12.680;2022-12-29T00:41:46;102063.13;;;6.31;77.91
76653;BME280;65563;45.970;12.680;2022-12-29T00:42:47;102060.16;;;6.45;77.58
76653;BME280;65563;45.970;12.680;2022-12-29T00:43:47;102069.06;;;6.44;77.43
76653;BME280;65563;45.970;12.680;2022-12-29T00:44:47;102068.78;;;6.48;77.24
76653;BME280;65563;45.970;12.680;2022-12-29T00:45:47;102073.16;;;6.37;77.47
76653;BME280;65563;45.970;12.680;2022-12-29T00:46:47;102066.34;;;6.56;76.94
76653;BME280;65563;45.970;12.680;2022-12-29T00:47:47;102074.31;;;6.44;77.44
76653;BME280;65563;45.970;12.680;2022-12-29T00:48:48;102067.13;;;6.47;77.37
76653;BME280;65563;45.970;12.680;2022-12-29T00:49:48;102067.75;;;6.60;76.93
76653;BME280;65563;45.970;12.680;2022-12-29T00:50:48;102061.94;;;6.66;76.88
76653;BME280;65563;45.970;12.680;2022-12-29T00:51:48;102068.00;;;6.78;76.07
76653;BME280;65563;45.970;12.680;2022-12-29T00:52:48;102069.84;;;6.87;75.62
76653;BME280;65563;45.970;12.680;2022-12-29T00:53:48;102065.13;;;6.90;75.41
76653;BME280;65563;45.970;12.680;2022-12-29T00:54:49;102060.00;;;6.89;75.44
76653;BME280;65563;45.970;12.680;2022-12-29T00:55:49;102061.22;;;6.85;75.41
76653;BME280;65563;45.970;12.680;2022-12-29T00:56:50;102064.00;;;6.83;75.36
76653;BME280;65563;45.970;12.680;2022-12-29T00:57:50;102059.53;;;6.74;75.64
76653;BME280;65563;45.970;12.680;2022-12-29T00:58:50;102053.38;;;6.74;75.71
76653;BME280;65563;45.970;12.680;2022-12-29T00:59:50;102052.69;;;6.72;76.03
76653;BME280;65563;45.970;12.680;2022-12-29T01:00:51;102058.06;;;6.70;76.18
76653;BME280;65563;45.970;12.680;2022-12-29T01:01:52;102056.56;;;6.67;76.22
76653;BME280;65563;45.970;12.680;2022-12-29T01:02:52;102049.78;;;6.75;76.10
76653;BME280;65563;45.970;12.680;2022-12-29T01:03:52;102048.66;;;6.77;75.82
76653;BME280;65563;45.970;12.680;2022-12-29T01:04:52;102039.81;;;6.78;75.70
76653;BME280;65563;45.970;12.680;2022-12-29T01:05:52;102032.56;;;6.80;75.59
76653;BME280;65563;45.970;12.680;2022-12-29T01:06:53;102036.19;;;6.79;75.86
76653;BME280;65563;45.970;12.680;2022-12-29T01:07:53;102037.00;;;6.80;75.65
76653;BME280;65563;45.970;12.680;2022-12-29T01:08:53;102044.81;;;6.81;75.66
76653;BME280;65563;45.970;12.680;2022-12-29T01:09:53;102055.00;;;6.65;76.10
76653;BME280;65563;45.970;12.680;2022-12-29T01:11:09;102050.63;;;6.75;75.76
76653;BME280;65563;45.970;12.680;2022-12-29T01:12:10;102040.66;;;6.58;76.17
76653;BME280;65563;45.970;12.680;2022-12-29T01:13:10;102041.19;;;6.52;76.29
76653;BME280;65563;45.970;12.680;2022-12-29T01:14:11;102041.44;;;6.49;76.50
76653;BME280;65563;45.970;12.680;2022-12-29T01:15:12;102044.31;;;6.45;76.85
76653;BME280;65563;45.970;12.680;2022-12-29T01:16:12;102044.66;;;6.52;77.01
76653;BME280;65563;45.970;12.680;2022-12-29T01:17:12;102051.31;;;6.47;77.10
76653;BME280;65563;45.970;12.680;2022-12-29T01:18:12;102053.03;;;6.36;77.31
76653;BME280;65563;45.970;12.680;2022-12-29T01:19:13;102054.69;;;6.37;77.39
76653;BME280;65563;45.970;12.680;2022-12-29T01:20:14;102051.38;;;6.35;77.62
76653;BME280;65563;45.970;12.680;2022-12-29T01:21:14;102043.38;;;6.47;77.55
76653;BME280;65563;45.970;12.680;2022-12-29T01:22:14;102033.00;;;6.55;77.17
76653;BME280;65563;45.970;12.680;2022-12-29T01:23:14;102038.44;;;6.63;76.88
76653;BME280;65563;45.970;12.680;2022-12-29T01:24:15;102033.91;;;6.65;76.70
76653;BME280;65563;45.970;12.680;2022-12-29T01:25:16;102035.97;;;6.61;76.56
76653;BME280;65563;45.970;12.680;2022-12-29T01:26:16;102045.78;;;6.59;76.72
76653;BME280;65563;45.970;12.680;2022-12-29T01:27:17;102046.13;;;6.66;76.72
76653;BME280;65563;45.970;12.680;2022-12-29T01:28:17;102045.16;;;6.67;76.65
76653;BME280;65563;45.970;12.680;2022-12-29T01:29:17;102033.94;;;6.75;76.29
76653;BME280;65563;45.970;12.680;2022-12-29T01:30:17;102030.75;;;6.71;76.33
76653;BME280;65563;45.970;12.680;2022-12-29T01:31:17;102027.69;;;6.76;76.35
76653;BME280;65563;45.970;12.680;2022-12-29T01:32:18;102029.50;;;6.75;76.33
76653;BME280;65563;45.970;12.680;2022-12-29T01:33:18;102036.28;;;6.68;76.65
76653;BME280;65563;45.970;12.680;2022-12-29T01:34:18;102039.75;;;6.68;76.79
76653;BME280;65563;45.970;12.680;2022-12-29T01:35:18;102036.31;;;6.78;76.60
76653;BME280;65563;45.970;12.680;2022-12-29T01:36:19;102036.19;;;6.79;76.18
76653;BME280;65563;45.970;12.680;2022-12-29T01:37:19;102038.25;;;6.76;76.35
76653;BME280;65563;45.970;12.680;2022-12-29T01:38:19;102032.22;;;6.64;76.44
76653;BME280;65563;45.970;12.680;2022-12-29T01:39:19;102032.34;;;6.62;76.54
76653;BME280;65563;45.970;12.680;2022-12-29T01:40:19;102034.41;;;6.59;76.89
76653;BME280;65563;45.970;12.680;2022-12-29T01:41:20;102037.84;;;6.50;77.00
76653;BME280;65563;45.970;12.680;2022-12-29T01:42:22;102031.44;;;6.52;76.92
76653;BME280;65563;45.970;12.680;2022-12-29T01:44:49;102033.97;;;6.54;76.89
76653;BME280;65563;45.970;12.680;2022-12-29T01:45:52;102037.97;;;6.48;76.91
76653;BME280;65563;45.970;12.680;2022-12-29T01:46:53;102040.41;;;6.40;77.20
76653;BME280;65563;45.970;12.680;2022-12-29T01:47:55;102048.78;;;6.24;77.52
76653;BME280;65563;45.970;12.680;2022-12-29T01:50:08;102057.00;;;6.10;78.23
76653;BME280;65563;45.970;12.680;2022-12-29T01:51:09;102047.66;;;6.06;78.22
76653;BME280;65563;45.970;12.680;2022-12-29T01:52:09;102046.69;;;6.07;78.34
76653;BME280;65563;45.970;12.680;2022-12-29T01:53:28;102042.91;;;6.00;78.49
76653;BME280;65563;45.970;12.680;2022-12-29T01:54:32;102042.91;;;6.00;78.42
76653;BME280;65563;45.970;12.680;2022-12-29T01:55:36;102033.91;;;6.02;78.53
76653;BME280;65563;45.970;12.680;2022-12-29T01:56:40;102025.00;;;6.14;78.08
76653;BME280;65563;45.970;12.680;2022-12-29T01:57:41;102018.16;;;6.12;77.72
76653;BME280;65563;45.970;12.680;2022-12-29T01:58:44;102021.69;;;6.22;77.41
76653;BME280;65563;45.970;12.680;2022-12-29T01:59:48;102021.13;;;6.18;77.27
76653;BME280;65563;45.970;12.680;2022-12-29T02:00:50;102016.44;;;6.22;77.20
76653;BME280;65563;45.970;12.680;2022-12-29T02:01:50;102016.34;;;6.12;77.27
76653;BME280;65563;45.970;12.680;2022-12-29T02:02:51;102019.50;;;6.06;77.41
76653;BME280;65563;45.970;12.680;2022-12-29T02:03:51;102017.44;;;6.10;77.34
76653;BME280;65563;45.970;12.680;2022-12-29T02:04:52;102017.66;;;6.18;77.28
76653;BME280;65563;45.970;12.680;2022-12-29T02:06:01;102026.31;;;6.09;77.44
76653;BME280;65563;45.970;12.680;2022-12-29T02:07:03;102016.69;;;6.19;77.21
76653;BME280;65563;45.970;12.680;2022-12-29T02:08:05;102019.75;;;6.24;76.60
76653;BME280;65563;45.970;12.680;2022-12-29T02:09:05;102018.66;;;6.06;77.10
76653;BME280;65563;45.970;12.680;2022-12-29T02:10:05;102020.47;;;6.05;77.17
76653;BME280;65563;45.970;12.680;2022-12-29T02:11:06;102020.56;;;6.04;77.07
76653;BME280;65563;45.970;12.680;2022-12-29T02:12:06;102032.56;;;6.08;77.32
76653;BME280;65563;45.970;12.680;2022-12-29T02:13:07;102027.34;;;5.85;78.02
76653;BME280;65563;45.970;12.680;2022-12-29T02:14:10;102027.16;;;5.77;78.37
76653;BME280;65563;45.970;12.680;2022-12-29T02:15:11;102026.66;;;5.83;78.05
76653;BME280;65563;45.970;12.680;2022-12-29T02:17:41;102020.84;;;5.89;77.42
76653;BME280;65563;45.970;12.680;2022-12-29T02:22:34;102024.09;;;5.61;78.41
76653;BME280;65563;45.970;12.680;2022-12-29T02:28:35;102016.50;;;5.67;77.75
76653;BME280;65563;45.970;12.680;2022-12-29T02:32:59;102014.16;;;5.53;78.86
76653;BME280;65563;45.970;12.680;2022-12-29T02:34:10;102006.75;;;5.47;79.00
76653;BME280;65563;45.970;12.680;2022-12-29T02:35:31;101995.63;;;5.55;78.58
76653;BME280;65563;45.970;12.680;2022-12-29T02:36:40;101991.88;;;5.57;78.23
76653;BME280;65563;45.970;12.680;2022-12-29T02:37:46;101994.00;;;5.63;78.40
76653;BME280;65563;45.970;12.680;2022-12-29T02:38:55;101997.72;;;5.61;78.38
76653;BME280;65563;45.970;12.680;2022-12-29T02:42:17;102005.69;;;5.49;78.61
76653;BME280;65563;45.970;12.680;2022-12-29T02:43:25;102015.88;;;5.43;78.71
76653;BME280;65563;45.970;12.680;2022-12-29T02:45:51;102014.59;;;5.37;78.77
76653;BME280;65563;45.970;12.680;2022-12-29T02:46:54;102015.31;;;5.28;79.15
76653;BME280;65563;45.970;12.680;2022-12-29T02:47:58;102014.84;;;5.23;79.31
76653;BME280;65563;45.970;12.680;2022-12-29T02:49:15;102018.66;;;5.19;79.61
76653;BME280;65563;45.970;12.680;2022-12-29T02:50:20;102019.53;;;5.08;79.98
76653;BME280;65563;45.970;12.680;2022-12-29T02:51:30;102017.13;;;5.16;80.14
76653;BME280;65563;45.970;12.680;2022-12-29T02:52:34;102005.00;;;5.25;79.79
76653;BME280;65563;45.970;12.680;2022-12-29T02:53:36;102007.19;;;5.20;79.82
76653;BME280;65563;45.970;12.680;2022-12-29T02:54:37;102002.16;;;5.17;79.85
76653;BME280;65563;45.970;12.680;2022-12-29T02:55:37;102002.50;;;5.35;79.28
76653;BME280;65563;45.970;12.680;2022-12-29T02:56:37;102009.91;;;5.30;79.12
76653;BME280;65563;45.970;12.680;2022-12-29T02:57:37;102016.28;;;5.27;79.42
76653;BME280;65563;45.970;12.680;2022-12-29T02:58:37;102017.81;;;5.30;79.38
76653;BME280;65563;45.970;12.680;2022-12-29T02:59:38;102015.31;;;5.28;79.43
76653;BME280;65563;45.970;12.680;2022-12-29T03:00:39;102013.41;;;5.30;79.35
76653;BME280;65563;45.970;12.680;2022-12-29T03:01:57;102004.03;;;5.37;79.11
76653;BME280;65563;45.970;12.680;2022-12-29T03:03:06;102005.09;;;5.46;78.85
76653;BME280;65563;45.970;12.680;2022-12-29T03:07:32;102002.44;;;5.46;78.93
76653;BME280;65563;45.970;12.680;2022-12-29T03:10:11;102000.44;;;5.38;79.65
76653;BME280;65563;45.970;12.680;2022-12-29T03:11:14;102010.63;;;5.32;79.16
76653;BME280;65563;45.970;12.680;2022-12-29T03:12:20;102010.75;;;5.41;79.12
76653;BME280;65563;45.970;12.680;2022-12-29T03:14:52;101999.63;;;5.38;79.32
76653;BME280;65563;45.970;12.680;2022-12-29T03:17:48;102010.03;;;5.28;79.70
76653;BME280;65563;45.970;12.680;2022-12-29T03:19:44;101998.16;;;5.45;79.67
76653;BME280;65563;45.970;12.680;2022-12-29T03:20:57;101995.44;;;5.67;78.92
76653;BME280;65563;45.970;12.680;2022-12-29T03:22:04;101998.88;;;5.79;78.03
76653;BME280;65563;45.970;12.680;2022-12-29T03:23:05;102002.09;;;5.83;77.61
76653;BME280;65563;45.970;12.680;2022-12-29T03:24:06;101998.25;;;5.87;77.35
76653;BME280;65563;45.970;12.680;2022-12-29T03:26:08;102003.47;;;5.66;78.03
76653;BME280;65563;45.970;12.680;2022-12-29T03:27:10;102003.75;;;5.84;77.39
76653;BME280;65563;45.970;12.680;2022-12-29T03:28:13;101992.88;;;5.77;77.36
76653;BME280;65563;45.970;12.680;2022-12-29T03:29:16;101996.59;;;5.74;77.70
76653;BME280;65563;45.970;12.680;2022-12-29T03:30:17;101993.53;;;5.69;77.50
76653;BME280;65563;45.970;12.680;2022-12-29T03:31:19;101991.00;;;5.68;77.69
76653;BME280;65563;45.970;12.680;2022-12-29T03:32:23;102001.03;;;5.74;77.52
76653;BME280;65563;45.970;12.680;2022-12-29T03:33:27;102000.53;;;5.80;77.20
76653;BME280;65563;45.970;12.680;2022-12-29T03:34:28;102002.69;;;5.86;77.17
76653;BME280;65563;45.970;12.680;2022-12-29T03:35:31;102000.53;;;5.80;76.99
76653;BME280;65563;45.970;12.680;2022-12-29T03:36:35;102000.22;;;5.73;77.02
76653;BME280;65563;45.970;12.680;2022-12-29T03:37:43;101997.03;;;5.59;77.51
76653;BME280;65563;45.970;12.680;2022-12-29T03:38:50;102004.84;;;5.49;77.81
76653;BME280;65563;45.970;12.680;2022-12-29T03:39:55;101997.09;;;5.36;78.10
76653;BME280;65563;45.970;12.680;2022-12-29T03:40:56;101997.59;;;5.30;78.35
76653;BME280;65563;45.970;12.680;2022-12-29T03:41:59;101994.97;;;5.30;78.71
76653;BME280;65563;45.970;12.680;2022-12-29T03:43:01;101996.34;;;5.45;77.91
76653;BME280;65563;45.970;12.680;2022-12-29T03:44:02;101988.94;;;5.39;78.32
76653;BME280;65563;45.970;12.680;2022-12-29T03:45:03;101993.22;;;5.40;78.15
76653;BME280;65563;45.970;12.680;2022-12-29T03:46:04;101993.97;;;5.42;78.02
76653;BME280;65563;45.970;12.680;2022-12-29T03:47:05;101992.19;;;5.32;78.27
76653;BME280;65563;45.970;12.680;2022-12-29T03:48:05;101981.28;;;5.36;77.90
76653;BME280;65563;45.970;12.680;2022-12-29T03:49:06;101985.03;;;5.34;77.86
76653;BME280;65563;45.970;12.680;2022-12-29T03:50:06;101977.28;;;5.53;77.12
76653;BME280;65563;45.970;12.680;2022-12-29T03:51:06;101977.91;;;5.45;77.02
76653;BME280;65563;45.970;12.680;2022-12-29T03:52:06;101984.50;;;5.51;76.97
76653;BME280;65563;45.970;12.680;2022-12-29T03:53:06;101978.16;;;5.42;76.92
76653;BME280;65563;45.970;12.680;2022-12-29T03:54:07;101978.59;;;5.47;77.13
76653;BME280;65563;45.970;12.680;2022-12-29T03:55:07;101984.16;;;5.44;76.89
76653;BME280;65563;45.970;12.680;2022-12-29T03:56:07;101979.63;;;5.35;76.95
76653;BME280;65563;45.970;12.680;2022-12-29T03:57:08;101985.50;;;5.28;77.14
76653;BME280;65563;45.970;12.680;2022-12-29T03:58:08;101980.47;;;5.24;77.77
76653;BME280;65563;45.970;12.680;2022-12-29T03:59:08;101989.94;;;5.27;77.84
76653;BME280;65563;45.970;12.680;2022-12-29T04:00:09;101990.44;;;5.10;78.41
76653;BME280;65563;45.970;12.680;2022-12-29T04:01:09;101989.34;;;5.12;78.59
76653;BME280;65563;45.970;12.680;2022-12-29T04:02:09;101989.28;;;5.02;78.92
76653;BME280;65563;45.970;12.680;2022-12-29T04:03:09;101993.34;;;4.95;79.18
76653;BME280;65563;45.970;12.680;2022-12-29T04:04:09;101992.03;;;4.90;79.55
76653;BME280;65563;45.970;12.680;2022-12-29T04:05:09;101995.38;;;4.81;79.82
76653;BME280;65563;45.970;12.680;2022-12-29T04:06:10;101986.88;;;4.77;80.24
76653;BME280;65563;45.970;12.680;2022-12-29T04:07:10;101993.84;;;4.78;80.48
76653;BME280;65563;45.970;12.680;2022-12-29T04:08:10;102001.50;;;4.81;80.27
76653;BME280;65563;45.970;12.680;2022-12-29T04:09:10;101997.63;;;4.96;79.28
76653;BME280;65563;45.970;12.680;2022-12-29T04:10:10;101994.41;;;4.93;79.60
76653;BME280;65563;45.970;12.680;2022-12-29T04:11:11;101996.44;;;4.89;79.45
76653;BME280;65563;45.970;12.680;2022-12-29T04:12:11;101996.69;;;4.86;79.49
76653;BME280;65563;45.970;12.680;2022-12-29T04:13:11;101995.72;;;4.87;79.73
76653;BME280;65563;45.970;12.680;2022-12-29T04:14:11;101995.38;;;4.92;79.54
76653;BME280;65563;45.970;12.680;2022-12-29T04:15:11;101998.34;;;4.87;79.46
76653;BME280;65563;45.970;12.680;2022-12-29T04:16:11;102001.94;;;4.86;79.29
76653;BME280;65563;45.970;12.680;2022-12-29T04:17:12;101999.56;;;4.83;79.28
76653;BME280;65563;45.970;12.680;2022-12-29T04:18:12;101994.53;;;4.80;79.52
76653;BME280;65563;45.970;12.680;2022-12-29T04:19:12;101994.44;;;4.82;79.34
76653;BME280;65563;45.970;12.680;2022-12-29T04:20:13;101988.19;;;4.83;79.33
76653;BME280;65563;45.970;12.680;2022-12-29T04:21:13;101991.78;;;4.82;79.90
76653;BME280;65563;45.970;12.680;2022-12-29T04:22:13;101991.66;;;4.94;79.00
76653;BME280;65563;45.970;12.680;2022-12-29T04:23:13;101990.94;;;5.03;78.84
76653;BME280;65563;45.970;12.680;2022-12-29T04:24:13;101993.69;;;5.13;78.20
76653;BME280;65563;45.970;12.680;2022-12-29T04:25:14;101992.47;;;5.17;78.20
76653;BME280;65563;45.970;12.680;2022-12-29T04:26:14;101992.81;;;5.24;77.74
76653;BME280;65563;45.970;12.680;2022-12-29T04:27:14;102001.19;;;5.18;77.67
76653;BME280;65563;45.970;12.680;2022-12-29T04:28:15;102000.72;;;5.24;77.77
76653;BME280;65563;45.970;12.680;2022-12-29T04:29:15;101999.97;;;5.33;77.29
76653;BME280;65563;45.970;12.680;2022-12-29T04:30:15;101994.94;;;5.41;77.25
76653;BME280;65563;45.970;12.680;2022-12-29T04:31:16;101996.59;;;5.42;nan
76653;BME280;65563;45.970;12.680;2022-12-29T04:32:16;101993.34;;;5.50;77.05
76653;BME280;65563;45.970;12.680;2022-12-29T04:33:16;101994.34;;;5.38;77.36
76653;BME280;65563;45.970;12.680;2022-12-29T04:34:16;101992.50;;;5.49;77.43
76653;BME280;65563;45.970;12.680;2022-12-29T04:35:16;101987.38;;;5.48;77.23
76653;BME280;65563;45.970;12.680;2022-12-29T04:36:16;101987.47;;;5.46;77.64
76653;BME280;65563;45.970;12.680;2022-12-29T04:37:16;101985.56;;;5.48;77.74
76653;BME280;65563;45.970;12.680;2022-12-29T04:38:17;101991.91;;;5.46;77.69
76653;BME280;65563;45.970;12.680;2022-12-29T04:39:17;101983.88;;;5.47;77.95
76653;BME280;65563;45.970;12.680;2022-12-29T04:40:17;101989.75;;;5.51;77.70
76653;BME280;65563;45.970;12.680;2022-12-29T04:41:17;101995.88;;;5.40;78.02
76653;BME280;65563;45.970;12.680;2022-12-29T04:42:17;101992.78;;;5.35;78.36
76653;BME280;65563;45.970;12.680;2022-12-29T04:43:17;101987.38;;;5.37;78.24
76653;BME280;65563;45.970;12.680;2022-12-29T04:44:18;101990.59;;;5.40;78.36
76653;BME280;65563;45.970;12.680;2022-12-29T04:45:18;101984.94;;;5.56;78.28
76653;BME280;65563;45.970;12.680;2022-12-29T04:46:18;101975.91;;;5.70;77.92
76653;BME280;65563;45.970;12.680;2022-12-29T04:47:18;101983.81;;;5.70;78.29
76653;BME280;65563;45.970;12.680;2022-12-29T04:48:18;101975.59;;;5.84;77.71
76653;BME280;65563;45.970;12.680;2022-12-29T04:49:19;101979.91;;;5.85;77.06
76653;BME280;65563;45.970;12.680;2022-12-29T04:50:19;101975.94;;;5.91;76.76
76653;BME280;65563;45.970;12.680;2022-12-29T04:51:19;101980.00;;;5.95;76.62
76653;BME280;65563;45.970;12.680;2022-12-29T04:52:19;101977.00;;;5.88;76.83
76653;BME280;65563;45.970;12.680;2022-12-29T04:53:21;101977.25;;;5.85;76.96
76653;BME280;65563;45.970;12.680;2022-12-29T04:54:22;101981.19;;;5.91;76.92
76653;BME280;65563;45.970;12.680;2022-12-29T04:55:22;101978.81;;;5.88;76.97
76653;BME280;65563;45.970;12.680;2022-12-29T04:56:22;101970.31;;;5.84;76.99
76653;BME280;65563;45.970;12.680;2022-12-29T04:57:22;101977.41;;;5.84;77.11
76653;BME280;65563;45.970;12.680;2022-12-29T04:58:22;101988.53;;;5.87;76.72
76653;BME280;65563;45.970;12.680;2022-12-29T04:59:22;101982.78;;;5.82;77.03
76653;BME280;65563;45.970;12.680;2022-12-29T05:00:23;101983.13;;;5.89;77.12
76653;BME280;65563;45.970;12.680;2022-12-29T05:01:23;101992.81;;;5.88;77.21
76653;BME280;65563;45.970;12.680;2022-12-29T05:02:23;101986.84;;;5.97;77.04
76653;BME280;65563;45.970;12.680;2022-12-29T05:03:23;101991.16;;;5.87;77.47
76653;BME280;65563;45.970;12.680;2022-12-29T05:04:23;101991.84;;;5.89;77.48
76653;BME280;65563;45.970;12.680;2022-12-29T05:05:24;101981.56;;;5.97;77.20
76653;BME280;65563;45.970;12.680;2022-12-29T05:06:24;101983.84;;;5.91;77.38
76653;BME280;65563;45.970;12.680;2022-12-29T05:07:24;101977.94;;;5.98;77.38
76653;BME280;65563;45.970;12.680;2022-12-29T05:08:24;101979.03;;;5.96;77.56
76653;BME280;65563;45.970;12.680;2022-12-29T05:09:24;101982.63;;;5.95;77.92
76653;BME280;65563;45.970;12.680;2022-12-29T05:10:25;101981.81;;;5.94;78.27
76653;BME280;65563;45.970;12.680;2022-12-29T05:11:25;101976.75;;;5.91;78.50
76653;BME280;65563;45.970;12.680;2022-12-29T05:12:25;101981.81;;;5.94;78.68
76653;BME280;65563;45.970;12.680;2022-12-29T05:13:25;101977.00;;;5.88;78.67
76653;BME280;65563;45.970;12.680;2022-12-29T05:14:25;101980.38;;;5.90;78.77
76653;BME280;65563;45.970;12.680;2022-12-29T05:15:26;101983.25;;;5.87;79.05
76653;BME280;65563;45.970;12.680;2022-12-29T05:16:26;101986.47;;;5.91;78.97
76653;BME280;65563;45.970;12.680;2022-12-29T05:17:26;101998.09;;;5.88;79.01
76653;BME280;65563;45.970;12.680;2022-12-29T05:18:26;102009.38;;;5.90;79.04
76653;BME280;65563;45.970;12.680;2022-12-29T05:19:26;102007.22;;;5.84;79.10
76653;BME280;65563;45.970;12.680;2022-12-29T05:20:26;102011.78;;;5.82;79.15
76653;BME280;65563;45.970;12.680;2022-12-29T05:21:27;102010.31;;;5.89;78.68
76653;BME280;65563;45.970;12.680;2022-12-29T05:22:27;102012.47;;;5.95;78.38
76653;BME280;65563;45.970;12.680;2022-12-29T05:23:27;102013.78;;;6.01;78.04
76653;BME280;65563;45.970;12.680;2022-12-29T05:24:27;102016.78;;;5.96;78.01
76653;BME280;65563;45.970;12.680;2022-12-29T05:25:27;102011.34;;;6.09;77.72
76653;BME280;65563;45.970;12.680;2022-12-29T05:26:28;102008.41;;;5.91;78.11
76653;BME280;65563;45.970;12.680;2022-12-29T05:27:28;102010.00;;;5.83;78.68
76653;BME280;65563;45.970;12.680;2022-12-29T05:28:28;102006.72;;;5.90;78.45
76653;BME280;65563;45.970;12.680;2022-12-29T05:29:28;102001.44;;;6.02;78.22
76653;BME280;65563;45.970;12.680;2022-12-29T05:30:28;102003.56;;;6.08;77.73
76653;BME280;65563;45.970;12.680;2022-12-29T05:31:29;102004.72;;;6.15;77.56
76653;BME280;65563;45.970;12.680;2022-12-29T05:32:29;102002.66;;;6.18;77.50
76653;BME280;65563;45.970;12.680;2022-12-29T05:33:29;102002.09;;;6.15;77.29
76653;BME280;65563;45.970;12.680;2022-12-29T05:34:29;101997.00;;;6.23;77.21
76653;BME280;65563;45.970;12.680;2022-12-29T05:35:29;102003.03;;;6.14;77.36
76653;BME280;65563;45.970;12.680;2022-12-29T05:36:29;101998.91;;;6.21;77.16
76653;BME280;65563;45.970;12.680;2022-12-29T05:37:30;101997.97;;;6.22;76.94
76653;BME280;65563;45.970;12.680;2022-12-29T05:38:30;102000.78;;;6.09;77.51
76653;BME280;65563;45.970;12.680;2022-12-29T05:39:30;101998.28;;;6.08;77.76
76653;BME280;65563;45.970;12.680;2022-12-29T05:40:30;102005.41;;;6.17;77.21
76653;BME280;65563;45.970;12.680;2022-12-29T05:41:30;102002.50;;;6.20;77.06
76653;BME280;65563;45.970;12.680;2022-12-29T05:42:30;102004.75;;;6.25;77.08
76653;BME280;65563;45.970;12.680;2022-12-29T05:43:31;101998.00;;;6.32;76.68
76653;BME280;65563;45.970;12.680;2022-12-29T05:44:31;101999.56;;;6.34;76.46
76653;BME280;65563;45.970;12.680;2022-12-29T05:45:31;101996.22;;;6.32;76.68
76653;BME280;65563;45.970;12.680;2022-12-29T05:46:31;101998.59;;;6.35;76.21
76653;BME280;65563;45.970;12.680;2022-12-29T05:47:31;102000.84;;;6.40;76.57
76653;BME280;65563;45.970;12.680;2022-12-29T05:48:31;102002.00;;;6.26;76.83
76653;BME280;65563;45.970;12.680;2022-12-29T05:49:32;102003.41;;;6.30;76.72
76653;BME280;65563;45.970;12.680;2022-12-29T05:50:32;102008.69;;;6.30;76.98
76653;BME280;65563;45.970;12.680;2022-12-29T05:51:32;102000.78;;;6.30;76.91
76653;BME280;65563;45.970;12.680;2022-12-29T05:52:32;102006.31;;;6.27;77.10